Time;durP1;ratioP1;P1;durP2;ratioP2;P2;SDS_P1;SDS_P2;PMS_P1;PMS_P2;Temp;Humidity;BMP_temperature;BMP_pressure;BME280_temperature;BME280_humidity;BME280_pressure;Samples;Min_cycle;Max_cycle;Signal;HPM_P1;HPM_P2
2023/11/30 00:01:39;;;;;;;0.10;0.10;;;6.60;99.90;;;;;;5103750;28;20048;-86
2023/11/30 00:04:05;;;;;;;0.10;0.10;;;6.50;99.90;;;;;;5100317;28;20035;-86
2023/11/30 00:06:37;;;;;;;0.10;0.10;;;6.60;99.90;;;;;;5098717;28;20054;-87
2023/11/30 00:09:03;;;;;;;0.10;0.10;;;6.50;99.90;;;;;;5101433;28;20031;-85
2023/11/30 00:11:28;;;;;;;0.10;0.10;;;6.60;99.90;;;;;;5092313;28;20016;-85
2023/11/30 00:13:54;;;;;;;0.10;0.10;;;6.60;99.90;;;;;;5096992;28;20024;-86
2023/11/30 00:16:20;;;;;;;0.10;0.10;;;6.60;99.90;;;;;;5095910;28;20077;-87
2023/11/30 00:18:45;;;;;;;0.08;0.08;;;6.50;99.90;;;;;;5103310;28;20035;-90
2023/11/30 00:21:11;;;;;;;0.10;0.10;;;6.50;99.90;;;;;;5100981;28;20023;-86
2023/11/30 00:23:37;;;;;;;0.10;0.10;;;6.50;99.90;;;;;;5100189;28;20044;-87
2023/11/30 00:26:03;;;;;;;0.10;0.10;;;6.50;99.90;;;;;;5096568;28;20107;-88
2023/11/30 00:28:29;;;;;;;0.10;0.10;;;6.60;99.90;;;;;;5101683;28;20032;-88
2023/11/30 00:30:54;;;;;;;0.10;0.10;;;6.50;99.90;;;;;;5096051;28;20843;-88
2023/11/30 00:33:20;;;;;;;0.10;0.10;;;6.50;99.90;;;;;;5101254;28;20020;-89
2023/11/30 00:35:46;;;;;;;0.10;0.10;;;6.60;99.90;;;;;;5103994;28;20110;-86
2023/11/30 00:38:11;;;;;;;0.10;0.10;;;6.70;99.90;;;;;;5098519;28;20475;-87
2023/11/30 00:40:40;;;;;;;0.10;0.10;;;6.70;99.90;;;;;;5103788;28;20028;-86
2023/11/30 00:43:06;;;;;;;0.10;0.10;;;6.80;99.90;;;;;;5100025;28;20573;-89
2023/11/30 00:45:32;;;;;;;0.10;0.10;;;6.90;99.90;;;;;;5094355;28;20114;-86
2023/11/30 00:47:58;;;;;;;0.10;0.10;;;7.00;99.90;;;;;;5099696;28;20032;-88
2023/11/30 00:50:24;;;;;;;0.10;0.10;;;7.20;99.90;;;;;;5103133;28;20059;-90
2023/11/30 00:52:49;;;;;;;0.10;0.10;;;7.20;99.90;;;;;;5098870;28;20027;-89
2023/11/30 00:55:15;;;;;;;0.10;0.10;;;7.10;99.90;;;;;;5089375;28;20038;-87
2023/11/30 00:57:41;;;;;;;0.10;0.10;;;7.20;99.90;;;;;;5098500;28;20116;-88
2023/11/30 01:00:08;;;;;;;0.10;0.10;;;7.30;99.90;;;;;;5094769;28;20032;-88
2023/11/30 01:02:34;;;;;;;0.10;0.10;;;7.30;99.90;;;;;;5097906;28;20044;-85
2023/11/30 01:05:01;;;;;;;0.10;0.10;;;7.40;99.90;;;;;;5096994;27;20028;-88
2023/11/30 01:07:27;;;;;;;0.10;0.10;;;7.40;99.90;;;;;;5102258;28;20069;-85
2023/11/30 01:09:52;;;;;;;0.10;0.10;;;7.40;99.90;;;;;;5100330;28;20566;-84
2023/11/30 01:12:18;;;;;;;0.10;0.10;;;7.20;99.90;;;;;;5102952;28;20236;-85
2023/11/30 01:14:44;;;;;;;0.10;0.10;;;7.30;99.90;;;;;;5098975;28;20058;-87
2023/11/30 01:17:10;;;;;;;0.10;0.10;;;7.40;99.90;;;;;;5103393;28;20024;-89
2023/11/30 01:19:35;;;;;;;0.10;0.10;;;7.40;99.90;;;;;;5096654;28;20039;-89
2023/11/30 01:22:01;;;;;;;0.10;0.10;;;7.40;99.90;;;;;;5098563;28;20540;-87
2023/11/30 01:24:27;;;;;;;0.10;0.10;;;7.50;99.90;;;;;;5092830;28;21867;-90
2023/11/30 01:26:53;;;;;;;0.10;0.10;;;7.60;99.90;;;;;;5097107;28;20027;-90
2023/11/30 01:29:18;;;;;;;0.10;0.10;;;7.70;99.90;;;;;;5102092;28;20188;-90
2023/11/30 01:31:44;;;;;;;0.10;0.10;;;7.70;99.90;;;;;;5098208;28;20031;-88
2023/11/30 01:34:10;;;;;;;0.22;0.22;;;7.70;99.90;;;;;;5099798;28;20059;-89
2023/11/30 01:36:35;;;;;;;0.10;0.10;;;7.70;99.90;;;;;;5100472;28;20068;-90
2023/11/30 01:39:01;;;;;;;0.10;0.10;;;7.80;99.90;;;;;;5094937;28;20024;-88
2023/11/30 01:41:27;;;;;;;0.10;0.10;;;7.80;99.90;;;;;;5099840;28;20102;-87
2023/11/30 01:43:53;;;;;;;0.10;0.10;;;7.80;99.90;;;;;;5099225;28;20035;-86
2023/11/30 01:46:19;;;;;;;0.10;0.10;;;7.90;99.90;;;;;;5094352;28;20028;-85
2023/11/30 01:48:46;;;;;;;0.10;0.10;;;7.90;99.90;;;;;;5090900;28;20032;-87
2023/11/30 01:51:12;;;;;;;0.10;0.10;;;7.90;99.90;;;;;;5096394;28;20023;-87
2023/11/30 01:53:39;;;;;;;0.10;0.10;;;7.90;99.90;;;;;;5097565;28;20082;-86
2023/11/30 01:56:06;;;;;;;;;;;7.90;99.90;;;;;;5091723;28;20032;-87
2023/11/30 01:58:32;;;;;;;0.10;0.10;;;7.90;99.90;;;;;;5099182;28;19959;-86
2023/11/30 02:00:58;;;;;;;0.10;0.10;;;7.90;99.90;;;;;;5094033;28;20135;-85
2023/11/30 02:03:24;;;;;;;0.10;0.10;;;7.90;99.90;;;;;;5097607;28;20126;-87
2023/11/30 02:05:51;;;;;;;0.00;0.00;;;7.90;99.90;;;;;;5098046;28;20024;-87
2023/11/30 02:08:17;;;;;;;;;;;8.00;99.90;;;;;;5101416;28;20034;-87
2023/11/30 02:10:43;;;;;;;0.10;0.10;;;7.90;99.90;;;;;;5099774;28;19911;-87
2023/11/30 02:13:09;;;;;;;0.10;0.10;;;8.00;99.90;;;;;;5098605;28;20035;-87
2023/11/30 02:15:34;;;;;;;0.10;0.10;;;8.00;99.90;;;;;;5096909;28;20032;-86
2023/11/30 02:18:00;;;;;;;0.10;0.10;;;8.00;99.90;;;;;;5100389;28;20019;-87
2023/11/30 02:20:26;;;;;;;0.10;0.10;;;8.00;99.90;;;;;;5089714;28;20769;-87
2023/11/30 02:22:52;;;;;;;0.10;0.10;;;8.10;99.90;;;;;;5095413;28;20035;-86
2023/11/30 02:25:17;;;;;;;0.00;0.00;;;8.10;99.90;;;;;;5098098;28;20106;-87
2023/11/30 02:27:43;;;;;;;0.10;0.10;;;8.00;99.90;;;;;;5093767;28;20073;-86
2023/11/30 02:30:09;;;;;;;0.93;0.93;;;8.10;99.90;;;;;;5092531;28;20023;-86
2023/11/30 02:32:35;;;;;;;0.10;0.10;;;8.10;99.90;;;;;;5096844;28;20049;-86
2023/11/30 02:35:02;;;;;;;0.10;0.10;;;8.10;99.90;;;;;;5098025;28;20020;-86
2023/11/30 02:37:27;;;;;;;0.10;0.10;;;8.00;99.90;;;;;;5097056;28;20034;-85
2023/11/30 02:39:53;;;;;;;0.10;0.10;;;8.10;99.90;;;;;;5096091;28;20035;-85
2023/11/30 02:42:20;;;;;;;0.10;0.10;;;8.10;99.90;;;;;;5096501;28;20042;-87
2023/11/30 02:44:45;;;;;;;0.30;0.30;;;8.10;99.90;;;;;;5098918;28;20463;-87
2023/11/30 02:47:11;;;;;;;0.00;0.00;;;8.10;99.90;;;;;;5102033;28;20114;-87
2023/11/30 02:49:37;;;;;;;0.10;0.10;;;8.10;99.90;;;;;;5099157;28;20088;-87
2023/11/30 02:52:03;;;;;;;0.10;0.10;;;8.20;99.90;;;;;;5095197;28;20609;-88
2023/11/30 02:54:28;;;;;;;0.10;0.10;;;8.20;99.90;;;;;;5093923;28;20028;-89
2023/11/30 02:56:54;;;;;;;0.00;0.00;;;8.10;99.90;;;;;;5090874;28;20032;-86
2023/11/30 02:59:20;;;;;;;0.10;0.10;;;8.20;99.90;;;;;;5100448;28;20096;-88
2023/11/30 03:01:46;;;;;;;0.25;0.25;;;8.20;99.90;;;;;;5098414;28;20484;-87
2023/11/30 03:04:12;;;;;;;0.10;0.10;;;8.20;99.90;;;;;;5096028;28;20024;-87
2023/11/30 03:06:40;;;;;;;0.10;0.10;;;8.20;99.90;;;;;;5096269;28;20041;-86
2023/11/30 03:09:07;;;;;;;0.10;0.10;;;8.20;99.90;;;;;;5093587;28;20065;-90
2023/11/30 03:11:32;;;;;;;0.10;0.10;;;8.20;99.90;;;;;;5095929;28;20669;-86
2023/11/30 03:13:58;;;;;;;0.10;0.10;;;8.20;99.90;;;;;;5089012;28;20086;-85
2023/11/30 03:16:25;;;;;;;0.25;0.25;;;8.20;99.90;;;;;;5100860;28;20031;-89
2023/11/30 03:18:51;;;;;;;0.10;0.10;;;8.20;99.90;;;;;;5095606;28;20085;-90
2023/11/30 03:21:18;;;;;;;0.15;0.15;;;8.20;99.90;;;;;;5096196;28;20044;-88
2023/11/30 03:23:43;;;;;;;;;;;8.30;99.90;;;;;;5095905;28;20124;-87
2023/11/30 03:26:09;;;;;;;0.00;0.00;;;8.30;99.90;;;;;;5098777;28;20036;-87
2023/11/30 03:28:35;;;;;;;0.10;0.10;;;8.30;99.90;;;;;;5092684;28;20032;-89
2023/11/30 03:31:01;;;;;;;0.10;0.10;;;8.30;99.90;;;;;;5099431;28;20030;-89
2023/11/30 03:33:27;;;;;;;0.10;0.10;;;8.30;99.90;;;;;;5105983;28;20035;-87
2023/11/30 03:35:52;;;;;;;0.10;0.10;;;8.30;99.90;;;;;;5095100;28;20020;-88
2023/11/30 03:38:18;;;;;;;0.10;0.10;;;8.30;99.90;;;;;;5099680;28;20028;-88
2023/11/30 03:40:44;;;;;;;0.10;0.10;;;8.30;99.90;;;;;;5099450;28;20062;-86
2023/11/30 03:43:10;;;;;;;0.10;0.10;;;8.30;99.90;;;;;;5098484;28;20036;-86
2023/11/30 03:45:35;;;;;;;0.40;0.40;;;8.30;99.90;;;;;;5099012;28;20410;-85
2023/11/30 03:48:01;;;;;;;0.03;0.03;;;8.40;99.90;;;;;;5102125;28;20030;-86
2023/11/30 03:50:27;;;;;;;0.10;0.10;;;8.30;99.90;;;;;;5098805;28;20040;-85
2023/11/30 03:52:52;;;;;;;0.08;0.08;;;8.40;99.90;;;;;;5097898;28;20035;-87
2023/11/30 03:55:19;;;;;;;0.10;0.10;;;8.40;99.90;;;;;;5103781;28;20030;-87
2023/11/30 03:57:44;;;;;;;0.10;0.10;;;8.40;99.90;;;;;;5103482;28;20030;-85
2023/11/30 04:14:45;;;;;;;0.10;0.10;;;8.50;99.90;;;;;;5093595;27;20028;-86
2023/11/30 04:17:11;;;;;;;0.10;0.10;;;8.50;99.90;;;;;;5098574;28;20016;-88
2023/11/30 04:19:36;;;;;;;0.10;0.10;;;8.50;99.90;;;;;;5096392;28;20039;-86
2023/11/30 04:22:02;;;;;;;0.10;0.10;;;8.50;99.90;;;;;;5102331;28;20046;-88
2023/11/30 04:24:28;;;;;;;0.10;0.10;;;8.60;99.90;;;;;;5103709;28;20063;-87
2023/11/30 04:26:53;;;;;;;0.10;0.10;;;8.50;99.90;;;;;;5101530;28;20101;-87
2023/11/30 04:29:19;;;;;;;0.10;0.10;;;8.50;99.90;;;;;;5098095;28;20098;-84
2023/11/30 04:31:45;;;;;;;0.00;0.00;;;8.50;99.90;;;;;;5094253;28;20031;-88
2023/11/30 04:34:11;;;;;;;0.10;0.10;;;8.50;99.90;;;;;;5095052;28;20486;-89
2023/11/30 04:36:36;;;;;;;0.10;0.10;;;8.60;99.90;;;;;;5102929;28;20995;-86
2023/11/30 04:39:02;;;;;;;0.10;0.10;;;8.60;99.90;;;;;;5098206;28;20076;-88
2023/11/30 04:41:28;;;;;;;0.17;0.17;;;8.60;99.90;;;;;;5088832;28;20657;-88
2023/11/30 04:43:54;;;;;;;4.07;0.70;;;8.60;99.90;;;;;;5100029;28;20308;-89
2023/11/30 04:46:20;;;;;;;0.10;0.10;;;8.60;99.90;;;;;;5096824;28;20531;-87
2023/11/30 04:48:46;;;;;;;0.10;0.10;;;8.60;99.90;;;;;;5103097;28;20103;-87
2023/11/30 04:51:11;;;;;;;0.20;0.20;;;8.60;99.90;;;;;;5102520;28;20471;-86
2023/11/30 04:53:37;;;;;;;0.10;0.10;;;8.70;99.90;;;;;;5088635;28;20473;-87
2023/11/30 04:56:03;;;;;;;0.10;0.10;;;8.70;99.90;;;;;;5088120;28;20035;-87
2023/11/30 04:58:28;;;;;;;0.10;0.10;;;8.60;99.90;;;;;;5095459;28;20104;-86
2023/11/30 05:00:54;;;;;;;0.10;0.10;;;8.70;99.90;;;;;;5097589;28;20097;-85
2023/11/30 05:03:20;;;;;;;0.10;0.10;;;8.70;99.90;;;;;;5096276;28;20044;-86
2023/11/30 05:05:45;;;;;;;0.03;0.03;;;8.70;99.90;;;;;;5093970;28;20024;-85
2023/11/30 05:08:11;;;;;;;0.10;0.10;;;8.70;99.90;;;;;;5102340;28;20031;-86
2023/11/30 05:10:37;;;;;;;0.10;0.10;;;8.70;99.90;;;;;;5098190;28;20038;-86
2023/11/30 05:13:03;;;;;;;0.10;0.10;;;8.70;99.90;;;;;;5094256;28;20051;-86
2023/11/30 05:15:28;;;;;;;0.00;0.00;;;8.70;99.90;;;;;;5099876;27;20031;-88
2023/11/30 05:17:54;;;;;;;0.10;0.10;;;8.70;99.90;;;;;;5102678;28;20035;-86
2023/11/30 05:20:20;;;;;;;0.10;0.10;;;8.80;99.90;;;;;;5103407;28;20440;-86
2023/11/30 05:22:45;;;;;;;1.00;1.00;;;8.70;99.90;;;;;;5101882;28;20039;-86
2023/11/30 05:25:11;;;;;;;0.00;0.00;;;8.70;99.90;;;;;;5102589;28;20028;-83
2023/11/30 05:27:37;;;;;;;0.10;0.10;;;8.80;99.90;;;;;;5095468;28;20027;-85
2023/11/30 05:30:03;;;;;;;0.10;0.10;;;8.80;99.90;;;;;;5092574;28;20070;-84
2023/11/30 05:32:29;;;;;;;0.10;0.10;;;8.80;99.90;;;;;;5101158;28;20027;-85
2023/11/30 05:34:54;;;;;;;0.10;0.10;;;8.80;99.90;;;;;;5090444;28;20039;-87
2023/11/30 05:37:20;;;;;;;0.08;0.08;;;8.80;99.90;;;;;;5093138;28;20020;-86
2023/11/30 05:39:46;;;;;;;0.10;0.10;;;8.80;99.90;;;;;;5095479;28;20039;-85
2023/11/30 05:42:11;;;;;;;0.10;0.10;;;8.90;99.90;;;;;;5100100;28;20046;-84
2023/11/30 05:44:37;;;;;;;0.10;0.10;;;8.80;99.90;;;;;;5099673;28;20592;-85
2023/11/30 05:47:03;;;;;;;0.10;0.10;;;8.80;99.90;;;;;;5095084;28;20031;-84
2023/11/30 05:49:29;;;;;;;0.10;0.10;;;8.90;99.90;;;;;;5098070;28;20056;-85
2023/11/30 05:51:54;;;;;;;0.10;0.10;;;8.80;99.90;;;;;;5096150;28;20546;-87
2023/11/30 05:54:20;;;;;;;0.10;0.10;;;8.90;99.90;;;;;;5096395;28;20492;-85
2023/11/30 05:56:45;;;;;;;0.10;0.10;;;8.90;99.90;;;;;;5089498;28;20043;-86
2023/11/30 05:59:12;;;;;;;0.20;0.20;;;8.90;99.90;;;;;;5096308;28;20026;-86
2023/11/30 06:01:37;;;;;;;0.25;0.25;;;8.90;99.90;;;;;;5097266;28;20074;-86
2023/11/30 06:04:04;;;;;;;0.00;0.00;;;9.00;99.90;;;;;;5094589;28;20486;-87
2023/11/30 06:06:30;;;;;;;0.10;0.10;;;8.90;99.90;;;;;;5100150;28;20043;-86
2023/11/30 06:08:55;;;;;;;0.10;0.10;;;9.00;99.90;;;;;;5096929;28;20036;-86
2023/11/30 06:11:21;;;;;;;0.10;0.10;;;9.00;99.90;;;;;;5098227;28;20051;-85
2023/11/30 06:13:47;;;;;;;0.00;0.00;;;9.00;99.90;;;;;;5098712;28;20027;-86
2023/11/30 06:16:13;;;;;;;0.10;0.10;;;9.00;99.90;;;;;;5095558;28;20032;-86
2023/11/30 06:18:39;;;;;;;0.43;0.40;;;9.00;99.90;;;;;;5096212;28;20032;-86
2023/11/30 06:21:10;;;;;;;0.17;0.17;;;9.00;99.90;;;;;;5099281;28;20080;-86
2023/11/30 06:23:37;;;;;;;0.90;0.75;;;9.00;99.90;;;;;;5086455;28;20126;-87
2023/11/30 06:26:03;;;;;;;0.20;0.20;;;9.00;99.90;;;;;;5090731;28;20031;-85
2023/11/30 06:28:29;;;;;;;0.05;0.05;;;9.00;99.90;;;;;;5089898;28;20039;-89
2023/11/30 06:30:55;;;;;;;0.00;0.00;;;9.00;99.90;;;;;;5102605;28;20110;-86
2023/11/30 06:33:20;;;;;;;0.07;0.07;;;9.00;99.90;;;;;;5089173;28;20020;-86
2023/11/30 06:35:46;;;;;;;0.20;0.20;;;9.00;99.90;;;;;;5097208;28;20752;-88
2023/11/30 06:38:12;;;;;;;0.03;0.03;;;9.00;99.90;;;;;;5097422;28;20039;-85
2023/11/30 06:40:38;;;;;;;0.00;0.00;;;9.00;99.90;;;;;;5099202;28;20035;-85
2023/11/30 06:43:03;;;;;;;0.00;0.00;;;9.00;99.90;;;;;;5098023;28;20035;-89
2023/11/30 06:45:29;;;;;;;0.10;0.10;;;9.00;99.90;;;;;;5097715;28;20039;-85
2023/11/30 06:47:57;;;;;;;0.17;0.17;;;9.00;99.90;;;;;;5097734;28;20108;-83
2023/11/30 06:50:22;;;;;;;0.10;0.10;;;9.00;99.90;;;;;;5101562;28;20047;-84
2023/11/30 06:52:48;;;;;;;0.10;0.10;;;9.10;99.90;;;;;;5104096;28;20646;-86
2023/11/30 06:55:14;;;;;;;0.10;0.10;;;9.10;99.90;;;;;;5096675;28;20016;-87
2023/11/30 06:57:40;;;;;;;0.20;0.20;;;9.10;99.90;;;;;;5101359;28;20936;-85
2023/11/30 07:00:10;;;;;;;0.00;0.00;;;9.10;99.90;;;;;;5101124;28;20028;-86
2023/11/30 07:02:36;;;;;;;0.10;0.10;;;9.10;99.90;;;;;;5101307;28;20070;-86
2023/11/30 07:05:05;;;;;;;0.10;0.10;;;9.10;99.90;;;;;;5101840;28;20055;-86
2023/11/30 07:07:34;;;;;;;0.00;0.00;;;9.00;99.90;;;;;;5100128;28;20020;-86
2023/11/30 07:10:00;;;;;;;0.10;0.10;;;9.10;99.90;;;;;;5099648;28;20102;-85
2023/11/30 07:12:26;;;;;;;0.10;0.10;;;9.10;99.90;;;;;;5103942;28;20028;-86
2023/11/30 07:14:52;;;;;;;0.10;0.10;;;9.00;99.90;;;;;;5103950;28;20569;-85
2023/11/30 07:17:18;;;;;;;0.05;0.05;;;9.10;99.90;;;;;;5104133;28;20088;-83
2023/11/30 07:19:44;;;;;;;0.10;0.10;;;9.10;99.90;;;;;;5106125;28;20044;-84
2023/11/30 07:22:09;;;;;;;0.70;0.70;;;9.10;99.90;;;;;;5105453;28;20024;-84
2023/11/30 07:24:36;;;;;;;0.10;0.10;;;9.00;99.90;;;;;;5104859;28;20109;-84
2023/11/30 07:27:02;;;;;;;0.55;0.55;;;9.00;99.90;;;;;;5105871;27;20046;-84
2023/11/30 07:29:33;;;;;;;0.10;0.10;;;9.10;99.90;;;;;;5106096;28;20042;-83
2023/11/30 07:31:58;;;;;;;0.10;0.10;;;9.10;99.90;;;;;;5100768;28;20823;-84
2023/11/30 07:34:24;;;;;;;0.10;0.10;;;9.10;99.90;;;;;;5106531;28;20030;-84
2023/11/30 07:36:50;;;;;;;0.00;0.00;;;9.10;99.90;;;;;;5105807;28;21035;-84
2023/11/30 07:39:16;;;;;;;0.10;0.10;;;9.10;99.90;;;;;;5098500;28;20031;-83
2023/11/30 07:41:42;;;;;;;0.07;0.07;;;9.10;99.90;;;;;;5104035;28;20028;-84
2023/11/30 07:44:08;;;;;;;0.03;0.03;;;9.10;99.90;;;;;;5105944;28;20071;-83
2023/11/30 07:46:34;;;;;;;0.10;0.10;;;9.20;99.90;;;;;;5105401;28;20486;-84
2023/11/30 07:49:01;;;;;;;0.10;0.10;;;9.20;99.90;;;;;;5105343;28;20182;-83
2023/11/30 07:51:26;;;;;;;0.08;0.08;;;9.20;99.90;;;;;;5105969;28;20096;-84
2023/11/30 07:53:52;;;;;;;0.10;0.10;;;9.20;99.90;;;;;;5106012;28;20439;-84
2023/11/30 07:56:20;;;;;;;0.10;0.10;;;9.20;99.90;;;;;;5105022;28;20027;-84
2023/11/30 07:58:46;;;;;;;0.10;0.10;;;9.10;99.90;;;;;;5105693;28;20023;-84
2023/11/30 08:01:11;;;;;;;0.10;0.10;;;9.20;99.90;;;;;;5104967;28;20055;-83
2023/11/30 08:03:37;;;;;;;0.10;0.10;;;9.20;99.90;;;;;;5105582;28;20042;-84
2023/11/30 08:06:06;;;;;;;0.08;0.08;;;9.10;99.90;;;;;;5106002;28;20028;-84
2023/11/30 08:08:31;;;;;;;0.03;0.03;;;9.20;99.90;;;;;;5104911;28;20027;-84
2023/11/30 08:10:57;;;;;;;0.10;0.10;;;9.10;99.90;;;;;;5105624;28;20426;-84
2023/11/30 08:13:23;;;;;;;0.00;0.00;;;9.20;99.90;;;;;;5104039;28;20032;-84
2023/11/30 08:15:48;;;;;;;0.10;0.10;;;9.20;99.90;;;;;;5092017;28;20800;-84
2023/11/30 08:18:16;;;;;;;0.10;0.10;;;9.30;99.90;;;;;;5104598;28;20027;-84
2023/11/30 08:20:43;;;;;;;0.10;0.10;;;9.30;99.90;;;;;;5105180;28;20019;-84
2023/11/30 08:23:09;;;;;;;0.00;0.00;;;9.30;99.90;;;;;;5104588;28;20035;-84
2023/11/30 08:25:34;;;;;;;0.10;0.10;;;9.30;99.90;;;;;;5104728;28;20031;-84
2023/11/30 08:28:00;;;;;;;0.10;0.10;;;9.30;99.90;;;;;;5105501;28;20545;-84
2023/11/30 08:30:26;;;;;;;0.00;0.00;;;9.20;99.90;;;;;;5104766;28;20748;-83
2023/11/30 08:32:52;;;;;;;0.10;0.10;;;9.30;99.90;;;;;;5105228;27;20508;-84
2023/11/30 08:35:17;;;;;;;1.03;0.57;;;9.30;99.90;;;;;;5104924;28;20112;-84
2023/11/30 08:37:43;;;;;;;0.00;0.00;;;9.30;99.90;;;;;;5105131;28;20070;-84
2023/11/30 08:40:12;;;;;;;0.03;0.03;;;9.40;99.90;;;;;;5104159;28;20097;-84
2023/11/30 08:42:38;;;;;;;0.10;0.10;;;9.40;99.90;;;;;;5104770;28;20057;-84
2023/11/30 08:45:05;;;;;;;0.10;0.10;;;9.50;99.90;;;;;;5104660;28;20748;-83
2023/11/30 08:47:30;;;;;;;0.10;0.10;;;9.50;99.90;;;;;;5104406;27;20048;-84
2023/11/30 08:49:56;;;;;;;1.75;1.05;;;9.50;99.90;;;;;;5104768;28;20066;-83
2023/11/30 08:52:23;;;;;;;0.10;0.10;;;9.50;99.90;;;;;;5104249;28;20020;-84
2023/11/30 08:54:48;;;;;;;0.10;0.10;;;9.60;99.90;;;;;;5103765;28;20024;-83
2023/11/30 08:57:14;;;;;;;0.10;0.10;;;9.60;99.90;;;;;;5104375;28;20697;-84
2023/11/30 08:59:40;;;;;;;0.10;0.10;;;9.70;99.90;;;;;;5104099;28;20077;-83
2023/11/30 09:02:06;;;;;;;0.00;0.00;;;9.80;99.90;;;;;;5104393;28;20147;-84
2023/11/30 09:04:32;;;;;;;0.10;0.10;;;9.80;99.90;;;;;;5104460;28;20023;-83
2023/11/30 09:06:58;;;;;;;0.10;0.10;;;9.80;99.90;;;;;;5097299;28;20104;-84
2023/11/30 09:09:24;;;;;;;0.03;0.03;;;9.70;99.90;;;;;;5101199;28;20036;-84
2023/11/30 09:11:49;;;;;;;0.00;0.00;;;9.70;99.90;;;;;;5104036;28;20030;-84
2023/11/30 09:14:15;;;;;;;0.10;0.10;;;9.70;99.90;;;;;;5098455;28;20024;-85
2023/11/30 09:16:41;;;;;;;0.00;0.00;;;9.70;99.90;;;;;;5095851;28;20145;-83
2023/11/30 09:19:06;;;;;;;0.10;0.10;;;9.80;99.90;;;;;;5103700;28;20073;-83
2023/11/30 09:21:32;;;;;;;0.00;0.00;;;9.70;99.90;;;;;;5104565;28;20035;-84
2023/11/30 09:24:03;;;;;;;0.10;0.10;;;9.80;99.90;;;;;;5102830;28;20074;-84
2023/11/30 09:26:30;;;;;;;0.20;0.20;;;9.80;99.90;;;;;;5103937;28;20023;-83
2023/11/30 09:28:57;;;;;;;0.10;0.10;;;9.70;99.90;;;;;;5103337;28;20034;-83
2023/11/30 09:31:23;;;;;;;0.00;0.00;;;9.70;99.90;;;;;;5103797;28;20019;-83
2023/11/30 09:33:48;;;;;;;0.10;0.10;;;9.80;99.90;;;;;;5103883;28;20585;-84
2023/11/30 09:36:15;;;;;;;0.03;0.03;;;9.80;99.90;;;;;;5104422;28;20031;-83
2023/11/30 09:38:41;;;;;;;0.10;0.10;;;9.80;99.90;;;;;;5104216;28;20028;-84
2023/11/30 09:41:08;;;;;;;0.10;0.10;;;9.90;99.90;;;;;;5103765;28;20028;-83
2023/11/30 09:43:35;;;;;;;0.10;0.10;;;9.80;99.90;;;;;;5103869;28;20034;-84
2023/11/30 09:46:00;;;;;;;0.10;0.10;;;9.90;99.90;;;;;;5102359;28;20028;-84
2023/11/30 09:48:26;;;;;;;0.10;0.10;;;9.90;99.90;;;;;;5103495;28;20808;-83
2023/11/30 09:50:52;;;;;;;0.10;0.10;;;9.90;99.90;;;;;;5103690;28;20024;-83
2023/11/30 09:53:18;;;;;;;0.00;0.00;;;10.00;99.90;;;;;;5103914;28;20103;-83
2023/11/30 09:55:44;;;;;;;0.00;0.00;;;10.00;99.90;;;;;;5097397;28;20784;-84
2023/11/30 09:58:09;;;;;;;0.00;0.00;;;9.90;99.90;;;;;;5103843;28;20031;-84
2023/11/30 10:00:35;;;;;;;0.10;0.10;;;10.00;99.90;;;;;;5103086;28;20043;-84
2023/11/30 10:03:04;;;;;;;0.10;0.10;;;10.00;99.90;;;;;;5101535;28;20319;-84
2023/11/30 10:05:29;;;;;;;0.00;0.00;;;10.00;99.90;;;;;;5097831;28;20530;-83
2023/11/30 10:07:58;;;;;;;0.10;0.10;;;10.10;99.90;;;;;;5099151;28;20016;-84
2023/11/30 10:10:25;;;;;;;0.10;0.10;;;10.00;99.90;;;;;;5096424;28;20020;-84
2023/11/30 10:12:53;;;;;;;0.10;0.10;;;10.00;99.90;;;;;;5101356;28;20085;-84
2023/11/30 10:15:20;;;;;;;0.32;0.32;;;10.00;99.90;;;;;;5084852;28;20052;-83
2023/11/30 10:17:46;;;;;;;0.00;0.00;;;10.00;99.90;;;;;;5103240;28;20027;-84
2023/11/30 10:20:12;;;;;;;0.00;0.00;;;10.00;99.90;;;;;;5101098;28;20027;-83
2023/11/30 10:22:39;;;;;;;0.10;0.10;;;10.00;99.90;;;;;;5102120;28;20836;-84
2023/11/30 10:25:09;;;;;;;0.10;0.10;;;10.00;99.90;;;;;;5102676;28;20016;-84
2023/11/30 10:27:36;;;;;;;0.05;0.05;;;10.00;99.90;;;;;;5083196;28;20357;-84
2023/11/30 10:30:04;;;;;;;;;;;10.00;99.90;;;;;;5098666;28;20099;-83
2023/11/30 10:32:37;;;;;;;0.08;0.08;;;10.10;99.90;;;;;;5102880;28;19907;-84
2023/11/30 10:35:07;;;;;;;0.10;0.10;;;10.00;99.90;;;;;;5102796;28;20026;-83
2023/11/30 10:37:40;;;;;;;0.10;0.10;;;10.10;99.90;;;;;;5102914;28;20028;-84
2023/11/30 10:40:10;;;;;;;0.13;0.13;;;10.00;99.90;;;;;;5102386;28;20156;-84
2023/11/30 10:42:36;;;;;;;0.00;0.00;;;10.00;99.90;;;;;;5106150;28;20084;-84
2023/11/30 10:45:04;;;;;;;0.05;0.05;;;10.10;99.90;;;;;;5106835;28;20012;-84
2023/11/30 10:47:30;;;;;;;0.08;0.08;;;10.10;99.90;;;;;;5107177;27;20022;-83
2023/11/30 10:49:59;;;;;;;0.03;0.03;;;10.10;99.90;;;;;;5106955;28;20024;-84
2023/11/30 10:52:28;;;;;;;1.58;1.48;;;10.10;99.90;;;;;;5107117;28;20023;-84
2023/11/30 10:54:59;;;;;;;0.05;0.05;;;10.10;99.90;;;;;;5101167;28;20101;-84
2023/11/30 10:57:25;;;;;;;0.00;0.00;;;10.10;99.90;;;;;;5105347;28;20031;-84
2023/11/30 10:59:58;;;;;;;0.00;0.00;;;10.10;99.90;;;;;;5106585;28;20062;-84
2023/11/30 11:02:25;;;;;;;0.10;0.10;;;10.10;99.90;;;;;;5106688;28;20396;-84
2023/11/30 11:04:52;;;;;;;0.05;0.05;;;10.10;99.90;;;;;;5106600;28;20024;-84
2023/11/30 11:07:18;;;;;;;0.30;0.30;;;10.10;99.90;;;;;;5107140;28;20121;-84
2023/11/30 11:09:51;;;;;;;0.10;0.10;;;10.10;99.90;;;;;;5102152;28;20031;-84
2023/11/30 11:12:25;;;;;;;0.10;0.10;;;10.10;99.90;;;;;;5106489;28;20019;-83
2023/11/30 11:15:11;;;;;;;0.00;0.00;;;10.30;99.90;;;;;;5095365;28;20055;-84
2023/11/30 11:17:53;;;;;;;0.00;0.00;;;10.30;99.90;;;;;;5105972;28;20611;-83
2023/11/30 11:20:23;;;;;;;0.10;0.10;;;10.40;99.90;;;;;;5105993;27;20078;-84
2023/11/30 11:22:53;;;;;;;0.10;0.10;;;10.50;99.90;;;;;;5105178;28;20665;-84
2023/11/30 11:25:20;;;;;;;0.10;0.10;;;10.60;99.90;;;;;;5105778;28;20028;-84
2023/11/30 11:27:45;;;;;;;0.00;0.00;;;10.50;99.90;;;;;;5106296;28;20019;-84
2023/11/30 11:30:13;;;;;;;0.10;0.10;;;10.50;99.90;;;;;;5106028;28;20945;-84
2023/11/30 11:32:40;;;;;;;0.10;0.10;;;10.60;99.90;;;;;;5106154;28;20817;-84
2023/11/30 11:35:06;;;;;;;0.00;0.00;;;10.60;99.90;;;;;;5105660;28;20028;-84
2023/11/30 11:37:33;;;;;;;0.10;0.10;;;10.60;99.90;;;;;;5106214;28;20034;-84
2023/11/30 11:40:00;;;;;;;0.00;0.00;;;10.60;99.90;;;;;;5105963;28;20031;-83
2023/11/30 11:42:26;;;;;;;0.00;0.00;;;10.60;99.90;;;;;;5105968;28;20032;-84
2023/11/30 11:44:52;;;;;;;0.00;0.00;;;10.60;99.90;;;;;;5105461;28;20383;-84
2023/11/30 11:47:18;;;;;;;0.10;0.10;;;10.50;99.90;;;;;;5106073;28;20565;-84
2023/11/30 11:49:44;;;;;;;0.00;0.00;;;10.50;99.90;;;;;;5105748;28;20102;-84
2023/11/30 11:52:17;;;;;;;0.10;0.10;;;10.50;99.90;;;;;;5097897;28;20046;-83
2023/11/30 11:54:43;;;;;;;0.00;0.00;;;10.40;99.90;;;;;;5098788;28;20020;-84
2023/11/30 11:57:09;;;;;;;0.08;0.08;;;10.40;99.90;;;;;;5105151;28;20024;-84
2023/11/30 11:59:34;;;;;;;0.08;0.08;;;10.30;99.90;;;;;;5104953;28;20730;-84
2023/11/30 12:02:00;;;;;;;0.00;0.00;;;10.30;99.90;;;;;;5104952;28;20051;-83
2023/11/30 12:04:28;;;;;;;0.20;0.20;;;10.40;99.90;;;;;;5105586;28;20035;-84
2023/11/30 12:06:54;;;;;;;0.10;0.10;;;10.40;99.90;;;;;;5103622;28;20031;-84
2023/11/30 12:09:20;;;;;;;0.00;0.00;;;10.50;99.90;;;;;;5101923;28;20027;-84
2023/11/30 12:11:47;;;;;;;0.10;0.10;;;10.50;99.90;;;;;;5105461;28;20111;-84
2023/11/30 12:14:17;;;;;;;0.00;0.00;;;10.40;99.90;;;;;;5099897;28;20830;-84
2023/11/30 12:16:43;;;;;;;0.10;0.10;;;10.40;99.90;;;;;;5096391;28;20567;-84
2023/11/30 12:19:09;;;;;;;0.05;0.05;;;10.40;99.90;;;;;;5105101;28;20032;-84
2023/11/30 12:21:37;;;;;;;0.00;0.00;;;10.30;99.90;;;;;;5105462;27;20031;-84
2023/11/30 12:24:03;;;;;;;0.00;0.00;;;10.40;99.90;;;;;;5104639;28;20035;-84
2023/11/30 12:26:29;;;;;;;0.00;0.00;;;10.50;99.90;;;;;;5105253;28;20077;-84
2023/11/30 12:28:55;;;;;;;0.00;0.00;;;10.50;99.90;;;;;;5104745;28;20605;-84
2023/11/30 12:31:22;;;;;;;0.00;0.00;;;10.60;99.90;;;;;;5105069;28;20488;-84
2023/11/30 12:33:48;;;;;;;;;;;10.60;99.90;;;;;;5101647;28;20402;-83
2023/11/30 12:36:14;;;;;;;0.10;0.10;;;10.60;99.90;;;;;;5103844;28;19908;-84
2023/11/30 12:38:40;;;;;;;0.00;0.00;;;10.70;99.90;;;;;;5105002;28;20035;-84
2023/11/30 12:41:06;;;;;;;0.00;0.00;;;10.70;99.90;;;;;;5104739;28;20097;-84
2023/11/30 12:43:32;;;;;;;0.05;0.05;;;10.70;99.90;;;;;;5103201;28;20040;-83
2023/11/30 12:45:57;;;;;;;0.00;0.00;;;10.60;99.90;;;;;;5104701;28;20038;-84
2023/11/30 12:48:23;;;;;;;0.00;0.00;;;10.60;99.90;;;;;;5105100;28;20562;-83
2023/11/30 12:50:50;;;;;;;0.00;0.00;;;10.60;99.90;;;;;;5104814;28;20015;-83
2023/11/30 12:53:17;;;;;;;;;;;10.60;99.90;;;;;;5105186;28;20023;-84
2023/11/30 12:55:43;;;;;;;0.10;0.10;;;10.50;99.90;;;;;;5104045;28;20002;-84
2023/11/30 12:58:10;;;;;;;0.10;0.10;;;10.50;99.90;;;;;;5104571;28;20024;-84
2023/11/30 13:00:36;;;;;;;0.00;0.00;;;10.60;99.90;;;;;;5104102;28;20086;-84
2023/11/30 13:03:02;;;;;;;0.00;0.00;;;10.60;99.90;;;;;;5103195;28;20035;-83
2023/11/30 13:05:28;;;;;;;0.10;0.10;;;10.60;99.90;;;;;;5104047;28;20027;-84